sensor_id;sensor_type;location;lat;lon;timestamp;temperature;humidity
18047;DHT22;9148;51.454;13.862;2023-07-29T00:01:59;18.00;99.90
18047;DHT22;9148;51.454;13.862;2023-07-29T00:04:25;18.00;99.90
18047;DHT22;9148;51.454;13.862;2023-07-29T00:06:50;17.90;99.90
18047;DHT22;9148;51.454;13.862;2023-07-29T00:09:16;17.90;99.90
18047;DHT22;9148;51.454;13.862;2023-07-29T00:11:42;17.80;99.90
18047;DHT22;9148;51.454;13.862;2023-07-29T00:14:07;17.80;99.90
18047;DHT22;9148;51.454;13.862;2023-07-29T00:16:33;17.70;99.90
18047;DHT22;9148;51.454;13.862;2023-07-29T00:18:59;17.70;99.90
18047;DHT22;9148;51.454;13.862;2023-07-29T00:21:24;17.60;99.90
18047;DHT22;9148;51.454;13.862;2023-07-29T00:23:50;17.60;99.90
18047;DHT22;9148;51.454;13.862;2023-07-29T00:26:16;17.60;99.90
18047;DHT22;9148;51.454;13.862;2023-07-29T00:28:41;17.50;99.90
18047;DHT22;9148;51.454;13.862;2023-07-29T00:31:07;17.50;99.90
18047;DHT22;9148;51.454;13.862;2023-07-29T00:33:33;17.40;99.90
18047;DHT22;9148;51.454;13.862;2023-07-29T00:35:58;17.40;99.90
18047;DHT22;9148;51.454;13.862;2023-07-29T00:38:27;17.40;99.90
18047;DHT22;9148;51.454;13.862;2023-07-29T00:40:53;17.40;99.90
18047;DHT22;9148;51.454;13.862;2023-07-29T00:43:18;17.40;99.90
18047;DHT22;9148;51.454;13.862;2023-07-29T00:45:44;17.40;99.90
18047;DHT22;9148;51.454;13.862;2023-07-29T00:48:10;17.30;99.90
18047;DHT22;9148;51.454;13.862;2023-07-29T00:50:36;17.30;99.90
18047;DHT22;9148;51.454;13.862;2023-07-29T00:53:02;17.30;99.90
18047;DHT22;9148;51.454;13.862;2023-07-29T00:55:28;17.30;99.90
18047;DHT22;9148;51.454;13.862;2023-07-29T00:57:54;17.30;99.90
18047;DHT22;9148;51.454;13.862;2023-07-29T01:00:21;17.20;99.90
18047;DHT22;9148;51.454;13.862;2023-07-29T01:02:47;17.20;99.90
18047;DHT22;9148;51.454;13.862;2023-07-29T01:05:15;17.20;99.90
18047;DHT22;9148;51.454;13.862;2023-07-29T01:08:01;17.20;99.90
18047;DHT22;9148;51.454;13.862;2023-07-29T01:11:23;17.10;99.90
18047;DHT22;9148;51.454;13.862;2023-07-29T01:16:42;17.10;99.90
18047;DHT22;9148;51.454;13.862;2023-07-29T01:22:23;17.00;99.90
18047;DHT22;9148;51.454;13.862;2023-07-29T01:24:49;17.00;99.90
18047;DHT22;9148;51.454;13.862;2023-07-29T01:27:15;17.00;99.90
18047;DHT22;9148;51.454;13.862;2023-07-29T01:29:41;17.40;99.90
18047;DHT22;9148;51.454;13.862;2023-07-29T01:37:33;17.10;99.90
18047;DHT22;9148;51.454;13.862;2023-07-29T01:40:00;17.00;99.90
18047;DHT22;9148;51.454;13.862;2023-07-29T01:42:27;17.00;99.90
18047;DHT22;9148;51.454;13.862;2023-07-29T01:44:53;17.00;99.90
18047;DHT22;9148;51.454;13.862;2023-07-29T01:47:18;17.00;99.90
18047;DHT22;9148;51.454;13.862;2023-07-29T01:49:45;17.00;99.90
18047;DHT22;9148;51.454;13.862;2023-07-29T01:52:11;16.90;99.90
18047;DHT22;9148;51.454;13.862;2023-07-29T01:54:37;16.90;99.90
18047;DHT22;9148;51.454;13.862;2023-07-29T01:57:03;16.90;99.90
18047;DHT22;9148;51.454;13.862;2023-07-29T01:59:28;16.90;99.90
18047;DHT22;9148;51.454;13.862;2023-07-29T02:01:54;16.90;99.90
18047;DHT22;9148;51.454;13.862;2023-07-29T02:04:19;16.80;99.90
18047;DHT22;9148;51.454;13.862;2023-07-29T02:06:45;16.90;99.90
18047;DHT22;9148;51.454;13.862;2023-07-29T02:09:11;16.80;99.90
18047;DHT22;9148;51.454;13.862;2023-07-29T02:11:37;16.80;99.90
18047;DHT22;9148;51.454;13.862;2023-07-29T02:14:02;16.70;99.90
18047;DHT22;9148;51.454;13.862;2023-07-29T02:16:28;16.70;99.90
18047;DHT22;9148;51.454;13.862;2023-07-29T02:18:54;16.70;99.90
18047;DHT22;9148;51.454;13.862;2023-07-29T02:21:20;16.80;99.90
18047;DHT22;9148;51.454;13.862;2023-07-29T02:23:45;16.80;99.90
18047;DHT22;9148;51.454;13.862;2023-07-29T02:26:11;16.80;99.90
18047;DHT22;9148;51.454;13.862;2023-07-29T02:28:37;16.80;99.90
18047;DHT22;9148;51.454;13.862;2023-07-29T02:31:16;16.80;99.90
18047;DHT22;9148;51.454;13.862;2023-07-29T02:33:46;16.80;99.90
18047;DHT22;9148;51.454;13.862;2023-07-29T02:36:13;16.90;99.90
18047;DHT22;9148;51.454;13.862;2023-07-29T02:38:40;16.90;99.90
18047;DHT22;9148;51.454;13.862;2023-07-29T02:41:06;16.90;99.90
18047;DHT22;9148;51.454;13.862;2023-07-29T02:43:31;16.90;99.90
18047;DHT22;9148;51.454;13.862;2023-07-29T02:45:57;17.00;99.90
18047;DHT22;9148;51.454;13.862;2023-07-29T02:48:23;17.00;99.90
18047;DHT22;9148;51.454;13.862;2023-07-29T02:50:49;17.00;99.90
18047;DHT22;9148;51.454;13.862;2023-07-29T02:53:14;17.10;99.90
18047;DHT22;9148;51.454;13.862;2023-07-29T02:55:40;17.20;99.90
18047;DHT22;9148;51.454;13.862;2023-07-29T02:58:06;17.20;99.90
18047;DHT22;9148;51.454;13.862;2023-07-29T03:00:32;17.20;99.90
18047;DHT22;9148;51.454;13.862;2023-07-29T03:02:59;17.30;99.90
18047;DHT22;9148;51.454;13.862;2023-07-29T03:05:27;17.30;99.90
18047;DHT22;9148;51.454;13.862;2023-07-29T03:07:53;17.30;99.90
18047;DHT22;9148;51.454;13.862;2023-07-29T03:10:18;17.30;99.90
18047;DHT22;9148;51.454;13.862;2023-07-29T03:12:44;17.40;99.90
18047;DHT22;9148;51.454;13.862;2023-07-29T03:15:10;17.40;99.90
18047;DHT22;9148;51.454;13.862;2023-07-29T03:17:35;17.40;99.90
18047;DHT22;9148;51.454;13.862;2023-07-29T03:20:01;17.50;99.90
18047;DHT22;9148;51.454;13.862;2023-07-29T03:22:27;17.60;99.90
18047;DHT22;9148;51.454;13.862;2023-07-29T03:24:52;17.60;99.90
18047;DHT22;9148;51.454;13.862;2023-07-29T03:27:18;17.70;99.90
18047;DHT22;9148;51.454;13.862;2023-07-29T03:29:44;17.70;99.90
18047;DHT22;9148;51.454;13.862;2023-07-29T03:32:10;17.80;99.90
18047;DHT22;9148;51.454;13.862;2023-07-29T03:34:36;17.80;99.90
18047;DHT22;9148;51.454;13.862;2023-07-29T03:37:02;17.90;99.90
18047;DHT22;9148;51.454;13.862;2023-07-29T03:39:28;18.00;99.90
18047;DHT22;9148;51.454;13.862;2023-07-29T03:41:54;18.00;99.90
18047;DHT22;9148;51.454;13.862;2023-07-29T03:44:19;18.10;99.90
18047;DHT22;9148;51.454;13.862;2023-07-29T03:46:45;18.20;99.90
18047;DHT22;9148;51.454;13.862;2023-07-29T03:49:11;18.30;99.90
18047;DHT22;9148;51.454;13.862;2023-07-29T03:51:36;18.30;99.90
18047;DHT22;9148;51.454;13.862;2023-07-29T03:54:02;18.40;99.90
18047;DHT22;9148;51.454;13.862;2023-07-29T03:56:28;18.50;99.90
18047;DHT22;9148;51.454;13.862;2023-07-29T03:58:53;18.50;99.90
18047;DHT22;9148;51.454;13.862;2023-07-29T04:01:28;18.60;99.90
18047;DHT22;9148;51.454;13.862;2023-07-29T04:03:53;18.70;99.90
18047;DHT22;9148;51.454;13.862;2023-07-29T04:06:20;18.80;99.90
18047;DHT22;9148;51.454;13.862;2023-07-29T04:08:46;18.90;99.90
18047;DHT22;9148;51.454;13.862;2023-07-29T04:11:11;19.00;99.90
18047;DHT22;9148;51.454;13.862;2023-07-29T04:13:37;19.00;99.90
18047;DHT22;9148;51.454;13.862;2023-07-29T04:16:04;19.10;99.90
18047;DHT22;9148;51.454;13.862;2023-07-29T04:18:30;19.20;99.90
18047;DHT22;9148;51.454;13.862;2023-07-29T04:20:55;19.20;99.90
18047;DHT22;9148;51.454;13.862;2023-07-29T04:23:21;19.30;99.90
18047;DHT22;9148;51.454;13.862;2023-07-29T04:25:47;19.40;99.90
18047;DHT22;9148;51.454;13.862;2023-07-29T04:28:12;19.40;99.90
18047;DHT22;9148;51.454;13.862;2023-07-29T04:30:38;19.40;99.90
18047;DHT22;9148;51.454;13.862;2023-07-29T04:33:04;19.50;99.90
18047;DHT22;9148;51.454;13.862;2023-07-29T04:35:29;19.50;99.90
18047;DHT22;9148;51.454;13.862;2023-07-29T04:37:55;19.50;99.90
18047;DHT22;9148;51.454;13.862;2023-07-29T04:40:21;19.60;99.90
18047;DHT22;9148;51.454;13.862;2023-07-29T04:42:48;19.70;99.90
18047;DHT22;9148;51.454;13.862;2023-07-29T04:45:14;19.70;99.90
18047;DHT22;9148;51.454;13.862;2023-07-29T04:47:39;19.70;99.90
18047;DHT22;9148;51.454;13.862;2023-07-29T04:50:06;19.80;99.90
18047;DHT22;9148;51.454;13.862;2023-07-29T04:52:32;19.80;99.90
18047;DHT22;9148;51.454;13.862;2023-07-29T04:54:58;19.80;99.90
18047;DHT22;9148;51.454;13.862;2023-07-29T04:57:23;19.90;99.90
18047;DHT22;9148;51.454;13.862;2023-07-29T04:59:49;19.90;99.90
18047;DHT22;9148;51.454;13.862;2023-07-29T05:02:14;19.90;99.90
18047;DHT22;9148;51.454;13.862;2023-07-29T05:04:40;19.90;99.90
18047;DHT22;9148;51.454;13.862;2023-07-29T05:07:06;19.90;99.90
18047;DHT22;9148;51.454;13.862;2023-07-29T05:09:32;20.00;99.90
18047;DHT22;9148;51.454;13.862;2023-07-29T05:11:57;20.00;99.90
18047;DHT22;9148;51.454;13.862;2023-07-29T05:14:23;20.00;99.90
18047;DHT22;9148;51.454;13.862;2023-07-29T05:16:49;20.00;99.90
18047;DHT22;9148;51.454;13.862;2023-07-29T05:19:15;20.00;99.90
18047;DHT22;9148;51.454;13.862;2023-07-29T05:21:40;20.00;99.90
18047;DHT22;9148;51.454;13.862;2023-07-29T05:24:06;20.00;99.90
18047;DHT22;9148;51.454;13.862;2023-07-29T05:26:32;20.00;99.90
18047;DHT22;9148;51.454;13.862;2023-07-29T05:28:58;20.10;99.90
18047;DHT22;9148;51.454;13.862;2023-07-29T05:31:23;20.10;99.90
18047;DHT22;9148;51.454;13.862;2023-07-29T05:33:49;20.20;99.90
18047;DHT22;9148;51.454;13.862;2023-07-29T05:36:15;20.30;99.90
18047;DHT22;9148;51.454;13.862;2023-07-29T05:38:41;20.40;99.90
18047;DHT22;9148;51.454;13.862;2023-07-29T05:41:06;20.60;99.90
18047;DHT22;9148;51.454;13.862;2023-07-29T05:43:32;20.80;99.90
18047;DHT22;9148;51.454;13.862;2023-07-29T05:45:58;21.10;99.90
18047;DHT22;9148;51.454;13.862;2023-07-29T05:48:23;21.30;99.90
18047;DHT22;9148;51.454;13.862;2023-07-29T05:50:49;21.50;99.90
18047;DHT22;9148;51.454;13.862;2023-07-29T05:53:15;21.80;99.90
18047;DHT22;9148;51.454;13.862;2023-07-29T05:55:41;21.90;99.90
18047;DHT22;9148;51.454;13.862;2023-07-29T05:58:07;22.00;99.90
18047;DHT22;9148;51.454;13.862;2023-07-29T06:00:32;22.10;99.90
18047;DHT22;9148;51.454;13.862;2023-07-29T06:02:58;22.30;99.90
18047;DHT22;9148;51.454;13.862;2023-07-29T06:05:24;22.30;99.90
18047;DHT22;9148;51.454;13.862;2023-07-29T06:07:49;22.40;99.90
18047;DHT22;9148;51.454;13.862;2023-07-29T06:10:16;22.50;99.90
18047;DHT22;9148;51.454;13.862;2023-07-29T06:12:44;22.50;99.90
18047;DHT22;9148;51.454;13.862;2023-07-29T06:15:10;22.50;99.90
18047;DHT22;9148;51.454;13.862;2023-07-29T06:17:37;22.90;99.90
18047;DHT22;9148;51.454;13.862;2023-07-29T06:20:06;22.70;99.90
18047;DHT22;9148;51.454;13.862;2023-07-29T06:22:32;22.80;99.90
18047;DHT22;9148;51.454;13.862;2023-07-29T06:24:58;22.90;99.90
18047;DHT22;9148;51.454;13.862;2023-07-29T06:27:24;23.10;99.90
18047;DHT22;9148;51.454;13.862;2023-07-29T06:29:50;23.20;99.90
18047;DHT22;9148;51.454;13.862;2023-07-29T06:32:16;23.30;99.90
18047;DHT22;9148;51.454;13.862;2023-07-29T06:34:42;23.40;99.90
18047;DHT22;9148;51.454;13.862;2023-07-29T06:37:07;23.50;99.90
18047;DHT22;9148;51.454;13.862;2023-07-29T06:39:33;23.70;99.90
18047;DHT22;9148;51.454;13.862;2023-07-29T06:41:59;23.80;99.90
18047;DHT22;9148;51.454;13.862;2023-07-29T06:44:24;24.00;99.90
18047;DHT22;9148;51.454;13.862;2023-07-29T06:46:50;24.00;99.90
18047;DHT22;9148;51.454;13.862;2023-07-29T06:49:15;24.10;99.90
18047;DHT22;9148;51.454;13.862;2023-07-29T06:51:41;24.30;99.90
18047;DHT22;9148;51.454;13.862;2023-07-29T06:54:07;24.30;99.90
18047;DHT22;9148;51.454;13.862;2023-07-29T06:56:32;24.40;99.90
18047;DHT22;9148;51.454;13.862;2023-07-29T06:58:58;24.40;99.90
18047;DHT22;9148;51.454;13.862;2023-07-29T07:01:24;24.50;99.90
18047;DHT22;9148;51.454;13.862;2023-07-29T07:03:49;24.50;99.90
18047;DHT22;9148;51.454;13.862;2023-07-29T07:06:15;24.50;99.90
18047;DHT22;9148;51.454;13.862;2023-07-29T07:08:41;24.60;99.90
18047;DHT22;9148;51.454;13.862;2023-07-29T07:11:07;24.50;99.80
18047;DHT22;9148;51.454;13.862;2023-07-29T07:13:33;24.40;99.30
18047;DHT22;9148;51.454;13.862;2023-07-29T07:15:59;24.30;99.50
18047;DHT22;9148;51.454;13.862;2023-07-29T07:18:25;24.20;99.20
18047;DHT22;9148;51.454;13.862;2023-07-29T07:20:51;24.10;99.40
18047;DHT22;9148;51.454;13.862;2023-07-29T07:23:17;24.10;99.50
18047;DHT22;9148;51.454;13.862;2023-07-29T07:25:43;24.10;99.70
18047;DHT22;9148;51.454;13.862;2023-07-29T07:28:10;24.10;99.30
18047;DHT22;9148;51.454;13.862;2023-07-29T07:30:39;24.10;99.20
18047;DHT22;9148;51.454;13.862;2023-07-29T07:33:06;24.10;99.20
18047;DHT22;9148;51.454;13.862;2023-07-29T07:35:32;24.10;99.10
18047;DHT22;9148;51.454;13.862;2023-07-29T07:37:57;24.20;99.20
18047;DHT22;9148;51.454;13.862;2023-07-29T07:40:24;24.20;99.00
18047;DHT22;9148;51.454;13.862;2023-07-29T07:42:50;24.30;98.70
18047;DHT22;9148;51.454;13.862;2023-07-29T07:45:16;24.30;98.10
18047;DHT22;9148;51.454;13.862;2023-07-29T07:47:43;24.40;98.20
18047;DHT22;9148;51.454;13.862;2023-07-29T07:50:09;24.40;98.00
18047;DHT22;9148;51.454;13.862;2023-07-29T07:52:35;24.40;98.00
18047;DHT22;9148;51.454;13.862;2023-07-29T07:55:01;24.50;97.90
18047;DHT22;9148;51.454;13.862;2023-07-29T07:57:26;24.60;98.00
18047;DHT22;9148;51.454;13.862;2023-07-29T07:59:52;24.70;97.90
18047;DHT22;9148;51.454;13.862;2023-07-29T08:02:18;24.80;97.80
18047;DHT22;9148;51.454;13.862;2023-07-29T08:04:44;25.00;97.10
18047;DHT22;9148;51.454;13.862;2023-07-29T08:07:10;25.10;96.50
18047;DHT22;9148;51.454;13.862;2023-07-29T08:09:35;25.20;96.40
18047;DHT22;9148;51.454;13.862;2023-07-29T08:12:01;25.30;96.10
18047;DHT22;9148;51.454;13.862;2023-07-29T08:14:26;25.50;95.20
18047;DHT22;9148;51.454;13.862;2023-07-29T08:16:52;25.60;94.90
18047;DHT22;9148;51.454;13.862;2023-07-29T08:19:18;25.70;94.60
18047;DHT22;9148;51.454;13.862;2023-07-29T08:21:44;25.90;94.10
18047;DHT22;9148;51.454;13.862;2023-07-29T08:24:09;26.10;93.50
18047;DHT22;9148;51.454;13.862;2023-07-29T08:26:35;26.20;93.00
18047;DHT22;9148;51.454;13.862;2023-07-29T08:29:01;26.40;91.70
18047;DHT22;9148;51.454;13.862;2023-07-29T08:31:27;26.50;91.50
18047;DHT22;9148;51.454;13.862;2023-07-29T08:33:52;26.50;90.80
18047;DHT22;9148;51.454;13.862;2023-07-29T08:36:18;26.60;91.00
18047;DHT22;9148;51.454;13.862;2023-07-29T08:38:43;26.60;90.20
18047;DHT22;9148;51.454;13.862;2023-07-29T08:41:14;26.70;90.70
18047;DHT22;9148;51.454;13.862;2023-07-29T08:44:12;26.80;90.60
18047;DHT22;9148;51.454;13.862;2023-07-29T08:46:51;26.90;90.40
18047;DHT22;9148;51.454;13.862;2023-07-29T08:49:19;26.90;88.70
18047;DHT22;9148;51.454;13.862;2023-07-29T08:51:49;26.90;87.10
18047;DHT22;9148;51.454;13.862;2023-07-29T08:54:16;26.80;86.70
18047;DHT22;9148;51.454;13.862;2023-07-29T08:56:42;26.70;86.10
18047;DHT22;9148;51.454;13.862;2023-07-29T08:59:09;26.70;87.00
18047;DHT22;9148;51.454;13.862;2023-07-29T09:01:39;26.70;86.70
18047;DHT22;9148;51.454;13.862;2023-07-29T09:04:05;26.80;86.00
18047;DHT22;9148;51.454;13.862;2023-07-29T09:06:31;26.90;85.80
18047;DHT22;9148;51.454;13.862;2023-07-29T09:08:58;26.80;84.60
18047;DHT22;9148;51.454;13.862;2023-07-29T09:11:24;26.80;83.50
18047;DHT22;9148;51.454;13.862;2023-07-29T09:13:50;26.70;83.60
18047;DHT22;9148;51.454;13.862;2023-07-29T09:16:16;26.60;82.80
18047;DHT22;9148;51.454;13.862;2023-07-29T09:18:42;26.60;83.20
18047;DHT22;9148;51.454;13.862;2023-07-29T09:21:07;26.60;83.00
18047;DHT22;9148;51.454;13.862;2023-07-29T09:23:41;26.70;81.70
18047;DHT22;9148;51.454;13.862;2023-07-29T09:26:07;26.70;78.20
18047;DHT22;9148;51.454;13.862;2023-07-29T09:28:35;26.70;77.30
18047;DHT22;9148;51.454;13.862;2023-07-29T09:31:02;26.70;77.80
18047;DHT22;9148;51.454;13.862;2023-07-29T09:33:36;26.70;77.00
18047;DHT22;9148;51.454;13.862;2023-07-29T09:36:09;26.70;76.90
18047;DHT22;9148;51.454;13.862;2023-07-29T09:38:35;26.70;76.10
18047;DHT22;9148;51.454;13.862;2023-07-29T09:41:02;26.80;76.10
18047;DHT22;9148;51.454;13.862;2023-07-29T09:43:32;26.80;75.70
18047;DHT22;9148;51.454;13.862;2023-07-29T09:46:03;26.90;75.50
18047;DHT22;9148;51.454;13.862;2023-07-29T09:48:34;26.90;76.00
18047;DHT22;9148;51.454;13.862;2023-07-29T09:51:10;26.90;74.90
18047;DHT22;9148;51.454;13.862;2023-07-29T09:53:45;27.00;75.30
18047;DHT22;9148;51.454;13.862;2023-07-29T09:56:12;27.00;75.50
18047;DHT22;9148;51.454;13.862;2023-07-29T09:58:39;27.20;75.00
18047;DHT22;9148;51.454;13.862;2023-07-29T10:01:08;27.30;73.60
18047;DHT22;9148;51.454;13.862;2023-07-29T10:03:36;27.40;73.50
18047;DHT22;9148;51.454;13.862;2023-07-29T10:06:03;27.50;72.40
18047;DHT22;9148;51.454;13.862;2023-07-29T10:08:31;27.60;72.80
18047;DHT22;9148;51.454;13.862;2023-07-29T10:11:10;27.60;71.70
18047;DHT22;9148;51.454;13.862;2023-07-29T10:13:37;27.60;72.20
18047;DHT22;9148;51.454;13.862;2023-07-29T10:16:04;27.60;72.80
18047;DHT22;9148;51.454;13.862;2023-07-29T10:18:31;27.60;73.40
18047;DHT22;9148;51.454;13.862;2023-07-29T10:20:59;27.60;72.30
18047;DHT22;9148;51.454;13.862;2023-07-29T10:23:27;27.60;72.40
18047;DHT22;9148;51.454;13.862;2023-07-29T10:25:59;27.60;72.60
18047;DHT22;9148;51.454;13.862;2023-07-29T10:28:30;27.60;72.60
18047;DHT22;9148;51.454;13.862;2023-07-29T10:30:57;27.60;72.70
18047;DHT22;9148;51.454;13.862;2023-07-29T10:33:24;27.80;73.10
18047;DHT22;9148;51.454;13.862;2023-07-29T10:35:52;27.90;72.30
18047;DHT22;9148;51.454;13.862;2023-07-29T10:38:21;28.10;71.50
18047;DHT22;9148;51.454;13.862;2023-07-29T10:40:50;28.20;71.00
18047;DHT22;9148;51.454;13.862;2023-07-29T10:43:35;28.20;70.70
18047;DHT22;9148;51.454;13.862;2023-07-29T10:46:22;28.20;70.80
18047;DHT22;9148;51.454;13.862;2023-07-29T10:48:54;28.10;69.90
18047;DHT22;9148;51.454;13.862;2023-07-29T10:51:34;28.00;69.40
18047;DHT22;9148;51.454;13.862;2023-07-29T10:54:12;27.90;69.40
18047;DHT22;9148;51.454;13.862;2023-07-29T10:56:46;27.90;69.90
18047;DHT22;9148;51.454;13.862;2023-07-29T11:01:57;27.90;69.70
18047;DHT22;9148;51.454;13.862;2023-07-29T11:04:28;27.90;68.60
18047;DHT22;9148;51.454;13.862;2023-07-29T11:10:00;27.90;69.00
18047;DHT22;9148;51.454;13.862;2023-07-29T11:15:26;28.00;68.80
18047;DHT22;9148;51.454;13.862;2023-07-29T11:18:00;27.80;68.80
18047;DHT22;9148;51.454;13.862;2023-07-29T11:20:33;27.70;68.70
18047;DHT22;9148;51.454;13.862;2023-07-29T11:23:01;27.60;69.00
18047;DHT22;9148;51.454;13.862;2023-07-29T11:25:29;27.50;69.60
18047;DHT22;9148;51.454;13.862;2023-07-29T11:27:57;27.30;70.00
18047;DHT22;9148;51.454;13.862;2023-07-29T11:30:24;27.30;70.30
18047;DHT22;9148;51.454;13.862;2023-07-29T11:32:53;27.10;70.70
18047;DHT22;9148;51.454;13.862;2023-07-29T11:35:20;27.10;71.30
18047;DHT22;9148;51.454;13.862;2023-07-29T11:37:48;27.20;71.30
18047;DHT22;9148;51.454;13.862;2023-07-29T11:40:24;27.20;72.00
18047;DHT22;9148;51.454;13.862;2023-07-29T11:42:51;27.20;72.40
18047;DHT22;9148;51.454;13.862;2023-07-29T11:45:21;27.30;71.80
18047;DHT22;9148;51.454;13.862;2023-07-29T11:47:48;27.40;71.50
18047;DHT22;9148;51.454;13.862;2023-07-29T11:50:15;27.40;71.60
18047;DHT22;9148;51.454;13.862;2023-07-29T11:52:45;27.40;71.40
18047;DHT22;9148;51.454;13.862;2023-07-29T11:55:13;27.50;71.50
18047;DHT22;9148;51.454;13.862;2023-07-29T11:57:40;27.40;71.00
18047;DHT22;9148;51.454;13.862;2023-07-29T12:00:09;27.40;71.40
18047;DHT22;9148;51.454;13.862;2023-07-29T12:02:42;27.30;71.80
18047;DHT22;9148;51.454;13.862;2023-07-29T12:05:10;27.50;72.00
18047;DHT22;9148;51.454;13.862;2023-07-29T12:07:38;27.70;71.60
18047;DHT22;9148;51.454;13.862;2023-07-29T12:10:05;27.90;71.00
18047;DHT22;9148;51.454;13.862;2023-07-29T12:12:31;27.90;70.00
18047;DHT22;9148;51.454;13.862;2023-07-29T12:14:57;27.80;70.30
18047;DHT22;9148;51.454;13.862;2023-07-29T12:17:23;27.60;70.50
18047;DHT22;9148;51.454;13.862;2023-07-29T12:19:48;27.40;71.20
18047;DHT22;9148;51.454;13.862;2023-07-29T12:22:18;27.30;71.50
18047;DHT22;9148;51.454;13.862;2023-07-29T12:24:44;27.20;72.20
18047;DHT22;9148;51.454;13.862;2023-07-29T12:27:14;27.20;72.40
18047;DHT22;9148;51.454;13.862;2023-07-29T12:29:43;27.20;72.60
18047;DHT22;9148;51.454;13.862;2023-07-29T12:32:10;27.10;72.10
18047;DHT22;9148;51.454;13.862;2023-07-29T12:34:38;27.10;72.50
18047;DHT22;9148;51.454;13.862;2023-07-29T12:37:07;27.20;72.40
18047;DHT22;9148;51.454;13.862;2023-07-29T12:39:39;27.10;72.40
18047;DHT22;9148;51.454;13.862;2023-07-29T12:42:07;27.20;73.10
18047;DHT22;9148;51.454;13.862;2023-07-29T12:44:33;27.20;73.40
18047;DHT22;9148;51.454;13.862;2023-07-29T12:47:05;27.20;73.60
18047;DHT22;9148;51.454;13.862;2023-07-29T12:49:32;27.10;74.10
18047;DHT22;9148;51.454;13.862;2023-07-29T12:51:58;27.10;74.00
18047;DHT22;9148;51.454;13.862;2023-07-29T12:54:24;27.00;74.20
18047;DHT22;9148;51.454;13.862;2023-07-29T12:56:50;27.00;74.60
18047;DHT22;9148;51.454;13.862;2023-07-29T12:59:16;27.00;74.70
18047;DHT22;9148;51.454;13.862;2023-07-29T13:01:42;27.10;74.30
18047;DHT22;9148;51.454;13.862;2023-07-29T13:04:08;27.10;74.40
18047;DHT22;9148;51.454;13.862;2023-07-29T13:06:37;27.20;74.40
18047;DHT22;9148;51.454;13.862;2023-07-29T13:09:03;27.20;74.20
18047;DHT22;9148;51.454;13.862;2023-07-29T13:11:30;27.20;74.60
18047;DHT22;9148;51.454;13.862;2023-07-29T13:13:57;27.20;74.40
18047;DHT22;9148;51.454;13.862;2023-07-29T13:16:23;27.20;73.20
18047;DHT22;9148;51.454;13.862;2023-07-29T13:18:49;27.20;73.00
18047;DHT22;9148;51.454;13.862;2023-07-29T13:21:15;27.10;72.50
18047;DHT22;9148;51.454;13.862;2023-07-29T13:23:40;27.10;72.70
18047;DHT22;9148;51.454;13.862;2023-07-29T13:26:06;27.00;73.00
18047;DHT22;9148;51.454;13.862;2023-07-29T13:28:32;26.90;73.10
18047;DHT22;9148;51.454;13.862;2023-07-29T13:30:57;26.90;73.10
18047;DHT22;9148;51.454;13.862;2023-07-29T13:33:23;26.90;73.10
18047;DHT22;9148;51.454;13.862;2023-07-29T13:35:49;27.00;73.50
18047;DHT22;9148;51.454;13.862;2023-07-29T13:38:15;26.90;73.60
18047;DHT22;9148;51.454;13.862;2023-07-29T13:40:41;26.90;73.70
18047;DHT22;9148;51.454;13.862;2023-07-29T13:43:07;26.80;73.50
18047;DHT22;9148;51.454;13.862;2023-07-29T13:45:34;26.80;74.00
18047;DHT22;9148;51.454;13.862;2023-07-29T13:48:00;26.80;73.10
18047;DHT22;9148;51.454;13.862;2023-07-29T13:50:34;26.70;73.60
18047;DHT22;9148;51.454;13.862;2023-07-29T13:53:00;26.70;74.20
18047;DHT22;9148;51.454;13.862;2023-07-29T13:55:25;26.70;74.00
18047;DHT22;9148;51.454;13.862;2023-07-29T13:57:52;26.70;74.90
18047;DHT22;9148;51.454;13.862;2023-07-29T14:00:19;26.80;74.00
18047;DHT22;9148;51.454;13.862;2023-07-29T14:02:44;26.90;74.40
18047;DHT22;9148;51.454;13.862;2023-07-29T14:05:10;27.20;74.20
18047;DHT22;9148;51.454;13.862;2023-07-29T14:07:37;27.50;72.60
18047;DHT22;9148;51.454;13.862;2023-07-29T14:10:02;27.80;71.80
18047;DHT22;9148;51.454;13.862;2023-07-29T14:12:28;27.90;71.30
18047;DHT22;9148;51.454;13.862;2023-07-29T14:14:54;28.00;70.50
18047;DHT22;9148;51.454;13.862;2023-07-29T14:17:20;28.10;70.80
18047;DHT22;9148;51.454;13.862;2023-07-29T14:19:45;28.30;70.10
18047;DHT22;9148;51.454;13.862;2023-07-29T14:22:11;28.40;70.00
18047;DHT22;9148;51.454;13.862;2023-07-29T14:24:36;28.50;68.70
18047;DHT22;9148;51.454;13.862;2023-07-29T14:27:02;28.60;66.90
18047;DHT22;9148;51.454;13.862;2023-07-29T14:29:28;28.60;66.10
18047;DHT22;9148;51.454;13.862;2023-07-29T14:31:54;28.50;66.40
18047;DHT22;9148;51.454;13.862;2023-07-29T14:34:20;28.50;67.00
18047;DHT22;9148;51.454;13.862;2023-07-29T14:36:45;28.60;66.50
18047;DHT22;9148;51.454;13.862;2023-07-29T14:39:11;28.60;66.30
18047;DHT22;9148;51.454;13.862;2023-07-29T14:41:37;28.60;66.10
18047;DHT22;9148;51.454;13.862;2023-07-29T14:44:02;28.60;66.30
18047;DHT22;9148;51.454;13.862;2023-07-29T14:46:28;28.70;65.40
18047;DHT22;9148;51.454;13.862;2023-07-29T14:48:54;28.70;65.70
18047;DHT22;9148;51.454;13.862;2023-07-29T14:51:19;28.70;65.90
18047;DHT22;9148;51.454;13.862;2023-07-29T14:53:45;28.80;64.60
18047;DHT22;9148;51.454;13.862;2023-07-29T14:56:11;28.80;64.80
18047;DHT22;9148;51.454;13.862;2023-07-29T14:58:38;28.80;64.50
18047;DHT22;9148;51.454;13.862;2023-07-29T15:01:04;29.00;63.60
18047;DHT22;9148;51.454;13.862;2023-07-29T15:03:30;29.10;63.60
18047;DHT22;9148;51.454;13.862;2023-07-29T15:05:55;29.10;63.90
18047;DHT22;9148;51.454;13.862;2023-07-29T15:08:21;29.20;63.90
18047;DHT22;9148;51.454;13.862;2023-07-29T15:10:49;29.30;63.60
18047;DHT22;9148;51.454;13.862;2023-07-29T15:13:15;29.20;63.10
18047;DHT22;9148;51.454;13.862;2023-07-29T15:15:42;29.00;62.40
18047;DHT22;9148;51.454;13.862;2023-07-29T15:18:08;28.80;63.10
18047;DHT22;9148;51.454;13.862;2023-07-29T15:20:34;28.60;63.90
18047;DHT22;9148;51.454;13.862;2023-07-29T15:22:59;28.50;64.50
18047;DHT22;9148;51.454;13.862;2023-07-29T15:25:25;28.50;65.70
18047;DHT22;9148;51.454;13.862;2023-07-29T15:27:51;28.40;66.50
18047;DHT22;9148;51.454;13.862;2023-07-29T15:30:16;28.50;67.00
18047;DHT22;9148;51.454;13.862;2023-07-29T15:32:42;28.60;67.40
18047;DHT22;9148;51.454;13.862;2023-07-29T15:35:08;28.70;67.40
18047;DHT22;9148;51.454;13.862;2023-07-29T15:37:34;28.90;67.70
18047;DHT22;9148;51.454;13.862;2023-07-29T15:39:59;29.00;67.40
18047;DHT22;9148;51.454;13.862;2023-07-29T15:42:25;29.20;67.40
18047;DHT22;9148;51.454;13.862;2023-07-29T15:44:51;29.40;67.10
18047;DHT22;9148;51.454;13.862;2023-07-29T15:47:16;29.50;66.30
18047;DHT22;9148;51.454;13.862;2023-07-29T15:49:44;29.60;66.20